createdAt,value
2018-04-15T00:00:06.960Z,12.71
2018-04-15T00:01:59.883Z,12.79
2018-04-15T00:02:59.883Z,12.83
2018-04-15T00:04:53.356Z,12.89
2018-04-15T00:05:52.805Z,12.93
2018-04-15T00:07:45.723Z,12.89
2018-04-15T00:08:45.727Z,13.00
2018-04-15T00:10:38.651Z,12.97
2018-04-15T00:11:38.649Z,12.90
2018-04-15T00:13:31.591Z,12.92
2018-04-15T00:14:31.579Z,12.95
2018-04-15T00:16:25.049Z,13.05
2018-04-15T00:17:24.506Z,13.07
2018-04-15T00:19:17.446Z,13.04
2018-04-15T00:20:17.426Z,13.03
2018-04-15T00:22:10.363Z,13.03
2018-04-15T00:23:10.354Z,13.03
2018-04-15T00:25:03.262Z,12.97
2018-04-15T00:26:03.273Z,12.97
2018-04-15T00:27:56.193Z,13.07
2018-04-15T00:28:56.197Z,13.10
2018-04-15T00:30:49.095Z,13.04
2018-04-15T00:31:49.118Z,13.04
2018-04-15T00:33:42.041Z,13.08
2018-04-15T00:34:42.039Z,13.01
2018-04-15T00:36:34.941Z,13.04
2018-04-15T00:37:34.964Z,12.96
2018-04-15T00:39:27.881Z,13.11
2018-04-15T00:40:27.883Z,12.93
2018-04-15T00:42:20.873Z,12.97
2018-04-15T00:43:20.807Z,13.05
2018-04-15T00:45:13.704Z,13.04
2018-04-15T00:46:13.741Z,13.05
2018-04-15T00:48:06.647Z,13.07
2018-04-15T00:49:06.649Z,12.96
2018-04-15T00:50:59.554Z,12.96
2018-04-15T00:51:59.585Z,12.90
2018-04-15T00:53:52.492Z,13.00
2018-04-15T00:54:52.512Z,12.95
2018-04-15T00:56:45.966Z,12.97
2018-04-15T00:57:45.421Z,12.96
2018-04-15T00:59:38.334Z,12.89
2018-04-15T01:00:38.335Z,12.82
2018-04-15T01:02:31.259Z,12.71
2018-04-15T01:03:31.260Z,12.72
2018-04-15T01:05:24.190Z,12.62
2018-04-15T01:06:24.210Z,12.68
2018-04-15T01:08:17.130Z,12.60
2018-04-15T01:09:17.135Z,12.62
2018-04-15T01:11:10.036Z,12.59
2018-04-15T01:12:10.057Z,12.71
2018-04-15T01:14:02.985Z,12.72
2018-04-15T01:15:02.981Z,12.71
2018-04-15T01:16:55.880Z,12.71
2018-04-15T01:17:55.903Z,12.72
2018-04-15T01:19:48.902Z,12.82
2018-04-15T01:20:48.823Z,12.75
2018-04-15T01:22:41.742Z,12.70
2018-04-15T01:23:41.741Z,12.71
2018-04-15T01:25:34.647Z,12.70
2018-04-15T01:26:34.668Z,12.57
2018-04-15T01:28:27.586Z,12.65
2018-04-15T01:29:27.583Z,12.59
2018-04-15T01:31:20.491Z,12.54
2018-04-15T01:32:20.509Z,12.47
2018-04-15T01:34:13.429Z,12.41
2018-04-15T01:35:13.430Z,12.47
2018-04-15T01:37:06.329Z,12.47
2018-04-15T01:38:06.349Z,12.49
2018-04-15T01:39:59.840Z,12.45
2018-04-15T01:40:59.272Z,12.50
2018-04-15T01:42:52.172Z,12.47
2018-04-15T01:43:52.195Z,12.50
2018-04-15T01:45:45.111Z,12.54
2018-04-15T01:46:45.116Z,12.64
2018-04-15T01:48:38.033Z,12.68
2018-04-15T01:49:38.037Z,12.70
2018-04-15T01:51:30.943Z,12.79
2018-04-15T01:52:30.963Z,12.68
2018-04-15T01:54:23.952Z,12.65
2018-04-15T01:55:23.885Z,12.68
2018-04-15T01:57:16.779Z,12.75
2018-04-15T01:58:16.802Z,12.72
2018-04-15T02:00:10.293Z,12.82
2018-04-15T02:01:09.729Z,12.78
2018-04-15T02:03:02.627Z,12.82
2018-04-15T02:04:02.649Z,12.85
2018-04-15T02:05:55.567Z,12.83
2018-04-15T02:06:55.570Z,12.79
2018-04-15T02:08:48.496Z,12.85
2018-04-15T02:09:48.494Z,12.87
2018-04-15T02:11:41.395Z,12.85
2018-04-15T02:12:41.416Z,12.93
2018-04-15T02:14:34.423Z,12.92
2018-04-15T02:15:34.340Z,12.96
2018-04-15T02:17:27.239Z,12.95
2018-04-15T02:18:27.261Z,12.96
2018-04-15T02:20:20.203Z,12.96
2018-04-15T02:21:20.186Z,12.97
2018-04-15T02:23:13.109Z,13.00
2018-04-15T02:24:13.109Z,12.95
2018-04-15T02:26:07.221Z,12.86
2018-04-15T02:27:07.226Z,12.95
2018-04-15T02:29:00.143Z,12.92
2018-04-15T02:30:00.148Z,12.90
2018-04-15T02:31:53.051Z,13.00
2018-04-15T02:32:53.069Z,13.00
2018-04-15T02:34:45.991Z,12.93
2018-04-15T02:35:45.995Z,12.95
2018-04-15T02:37:38.897Z,12.82
2018-04-15T02:38:38.917Z,12.74
2018-04-15T02:40:31.841Z,12.74
2018-04-15T02:41:31.842Z,12.79
2018-04-15T02:43:24.745Z,12.72
2018-04-15T02:44:24.765Z,12.77
2018-04-15T02:46:17.684Z,12.65
2018-04-15T02:47:17.690Z,12.68
2018-04-15T02:49:10.609Z,12.68
2018-04-15T02:50:10.608Z,12.70
2018-04-15T02:52:03.513Z,12.65
2018-04-15T02:53:03.537Z,12.67
2018-04-15T02:54:56.658Z,12.75
2018-04-15T02:55:56.664Z,12.67
2018-04-15T02:57:49.560Z,12.83
2018-04-15T02:58:49.598Z,12.86
2018-04-15T03:00:42.502Z,12.82
2018-04-15T03:01:42.521Z,12.85
2018-04-15T03:03:35.408Z,12.86
2018-04-15T03:04:35.434Z,12.87
2018-04-15T03:06:28.347Z,12.89
2018-04-15T03:07:28.352Z,12.93
2018-04-15T03:09:21.288Z,13.12
2018-04-15T03:10:21.294Z,13.08
2018-04-15T03:12:14.269Z,13.04
2018-04-15T03:13:14.234Z,13.10
2018-04-15T03:15:07.153Z,13.05
2018-04-15T03:16:07.159Z,13.03
2018-04-15T03:18:00.130Z,13.05
2018-04-15T03:19:00.077Z,12.93
2018-04-15T03:20:52.996Z,12.90
2018-04-15T03:21:53.003Z,12.90
2018-04-15T03:23:45.898Z,12.83
2018-04-15T03:24:45.920Z,12.75
2018-04-15T03:26:38.841Z,12.82
2018-04-15T03:27:38.844Z,12.75
2018-04-15T03:29:31.836Z,12.78
2018-04-15T03:30:31.768Z,12.77
2018-04-15T03:32:24.674Z,12.77
2018-04-15T03:33:24.696Z,12.82
2018-04-15T03:35:17.610Z,12.74
2018-04-15T03:36:17.614Z,12.72
2018-04-15T03:38:10.514Z,12.77
2018-04-15T03:39:10.535Z,12.77
2018-04-15T03:41:03.458Z,12.77
2018-04-15T03:42:03.463Z,12.74
2018-04-15T03:43:56.402Z,12.72
2018-04-15T03:44:56.383Z,12.79
2018-04-15T03:46:49.308Z,12.75
2018-04-15T03:47:49.309Z,12.71
2018-04-15T03:49:42.942Z,12.65
2018-04-15T03:50:42.232Z,12.60
2018-04-15T03:52:35.129Z,12.67
2018-04-15T03:53:35.151Z,12.59
2018-04-15T03:55:28.073Z,12.64
2018-04-15T03:56:28.074Z,12.59
2018-04-15T03:58:20.972Z,12.68
2018-04-15T03:59:20.996Z,12.60
2018-04-15T04:01:13.916Z,12.67
2018-04-15T04:02:13.919Z,12.60
2018-04-15T04:04:06.830Z,12.65
2018-04-15T04:05:06.846Z,12.64
2018-04-15T04:06:59.767Z,12.64
2018-04-15T04:07:59.771Z,12.57
2018-04-15T04:09:52.691Z,12.59
2018-04-15T04:10:52.694Z,12.64
2018-04-15T04:12:45.691Z,12.57
2018-04-15T04:13:45.619Z,12.56
2018-04-15T04:15:38.555Z,12.64
2018-04-15T04:16:38.571Z,12.62
2018-04-15T04:18:31.448Z,12.68
2018-04-15T04:19:31.463Z,12.65
2018-04-15T04:21:24.390Z,12.56
2018-04-15T04:22:24.386Z,12.65
2018-04-15T04:24:17.285Z,12.65
2018-04-15T04:25:17.309Z,12.56
2018-04-15T04:27:10.245Z,12.64
2018-04-15T04:28:10.231Z,12.64
2018-04-15T04:30:03.172Z,12.56
2018-04-15T04:31:03.154Z,12.62
2018-04-15T04:32:56.065Z,12.62
2018-04-15T04:33:56.092Z,12.60
2018-04-15T04:35:49.007Z,12.68
2018-04-15T04:36:49.008Z,12.56
2018-04-15T04:38:41.908Z,12.64
2018-04-15T04:39:41.930Z,12.57
2018-04-15T04:41:34.852Z,12.54
2018-04-15T04:42:34.858Z,12.56
2018-04-15T04:44:27.755Z,12.54
2018-04-15T04:45:27.781Z,12.49
2018-04-15T04:47:20.697Z,12.54
2018-04-15T04:48:20.706Z,12.54
2018-04-15T04:50:13.621Z,12.42
2018-04-15T04:51:13.642Z,12.50
2018-04-15T04:53:06.533Z,12.50
2018-04-15T04:54:06.551Z,12.50
2018-04-15T04:55:59.490Z,12.42
2018-04-15T04:56:59.509Z,12.47
2018-04-15T04:58:52.389Z,12.39
2018-04-15T04:59:52.415Z,12.37
2018-04-15T05:01:45.332Z,12.29
2018-04-15T05:02:45.336Z,12.31
2018-04-15T05:04:38.260Z,12.29
2018-04-15T05:05:38.281Z,12.29
2018-04-15T05:07:31.277Z,12.23
2018-04-15T05:08:31.223Z,12.27
2018-04-15T05:10:25.145Z,12.19
2018-04-15T05:11:25.151Z,12.23
2018-04-15T05:13:18.055Z,12.24
2018-04-15T05:14:18.081Z,12.24
2018-04-15T05:16:10.997Z,12.19
2018-04-15T05:17:11.049Z,12.17
2018-04-15T05:19:06.617Z,12.23
2018-04-15T05:20:03.923Z,12.24
2018-04-15T05:21:56.913Z,12.31
2018-04-15T05:22:56.842Z,12.31
2018-04-15T05:24:50.314Z,12.31
2018-04-15T05:25:49.800Z,12.29
2018-04-15T05:27:42.729Z,12.32
2018-04-15T05:28:42.739Z,12.34
2018-04-15T05:30:35.725Z,12.38
2018-04-15T05:31:35.690Z,12.32
2018-04-15T05:33:28.601Z,12.42
2018-04-15T05:34:28.641Z,12.38
2018-04-15T05:36:21.570Z,12.37
2018-04-15T05:37:21.577Z,12.42
2018-04-15T05:39:15.346Z,12.29
2018-04-15T05:40:15.373Z,12.34
2018-04-15T05:42:08.318Z,12.32
2018-04-15T05:43:08.322Z,12.45
2018-04-15T05:45:01.223Z,12.29
2018-04-15T05:46:01.243Z,12.34
2018-04-15T05:47:54.174Z,12.23
2018-04-15T05:48:54.174Z,12.24
2018-04-15T05:50:47.099Z,12.27
2018-04-15T05:51:47.103Z,12.27
2018-04-15T05:53:40.013Z,12.31
2018-04-15T05:54:40.037Z,12.42
2018-04-15T05:56:32.952Z,12.42
2018-04-15T05:57:32.953Z,12.46
2018-04-15T05:59:26.941Z,12.32
2018-04-15T06:00:26.870Z,12.31
2018-04-15T06:02:19.788Z,12.23
2018-04-15T06:03:19.819Z,12.23
2018-04-15T06:05:12.711Z,12.21
2018-04-15T06:06:12.720Z,12.28
2018-04-15T06:08:05.632Z,12.31
2018-04-15T06:09:05.636Z,12.29
2018-04-15T06:10:58.555Z,12.47
2018-04-15T06:11:58.569Z,12.39
2018-04-15T06:13:51.459Z,12.46
2018-04-15T06:14:51.532Z,12.56
2018-04-15T06:16:44.399Z,12.59
2018-04-15T06:17:44.403Z,12.56
2018-04-15T06:19:37.304Z,12.57
2018-04-15T06:20:37.326Z,12.52
2018-04-15T06:22:30.244Z,12.56
2018-04-15T06:23:30.247Z,12.56
2018-04-15T06:25:23.178Z,12.49
2018-04-15T06:26:23.190Z,12.45
2018-04-15T06:28:16.272Z,12.47
2018-04-15T06:29:16.279Z,12.45
2018-04-15T06:31:09.347Z,12.20
2018-04-15T06:32:09.351Z,12.13
2018-04-15T06:34:02.251Z,12.12
2018-04-15T06:35:02.272Z,12.21
2018-04-15T06:36:55.237Z,12.27
2018-04-15T06:37:55.201Z,12.19
2018-04-15T06:39:48.272Z,12.12
2018-04-15T06:40:48.302Z,12.02
2018-04-15T06:42:41.212Z,12.09
2018-04-15T06:43:41.217Z,12.14
2018-04-15T06:45:34.282Z,12.16
2018-04-15T06:46:34.304Z,12.28
2018-04-15T06:48:27.378Z,12.24
2018-04-15T06:49:27.381Z,12.14
2018-04-15T06:51:20.304Z,12.12
2018-04-15T06:52:20.303Z,12.20
2018-04-15T06:54:13.371Z,12.27
2018-04-15T06:55:13.383Z,12.21
2018-04-15T06:57:06.303Z,12.32
2018-04-15T06:58:06.304Z,12.50
2018-04-15T06:59:59.776Z,12.46
2018-04-15T07:00:59.232Z,12.49
2018-04-15T07:02:52.146Z,12.68
2018-04-15T07:03:52.151Z,12.71
2018-04-15T07:05:45.051Z,12.74
2018-04-15T07:06:45.075Z,12.65
2018-04-15T07:08:37.993Z,12.86
2018-04-15T07:09:38.061Z,12.85
2018-04-15T07:11:30.913Z,12.87
2018-04-15T07:12:30.915Z,12.93
2018-04-15T07:14:23.815Z,12.97
2018-04-15T07:15:23.839Z,13.11
2018-04-15T07:17:16.919Z,13.07
2018-04-15T07:18:16.921Z,13.14
2018-04-15T07:20:09.890Z,13.17
2018-04-15T07:21:09.840Z,13.25
2018-04-15T07:23:02.779Z,13.19
2018-04-15T07:24:02.786Z,13.25
2018-04-15T07:25:55.689Z,13.39
2018-04-15T07:26:55.710Z,13.45
2018-04-15T07:28:48.638Z,13.51
2018-04-15T07:29:48.647Z,13.57
2018-04-15T07:31:41.566Z,13.57
2018-04-15T07:32:41.565Z,13.60
2018-04-15T07:34:34.471Z,13.64
2018-04-15T07:35:34.494Z,13.55
2018-04-15T07:37:27.483Z,13.67
2018-04-15T07:38:27.415Z,13.60
2018-04-15T07:40:20.326Z,13.48
2018-04-15T07:41:20.360Z,13.55
2018-04-15T07:43:13.271Z,13.54
2018-04-15T07:44:13.279Z,13.51
2018-04-15T07:46:06.178Z,13.38
2018-04-15T07:47:06.203Z,13.44
2018-04-15T07:48:59.126Z,13.48
2018-04-15T07:49:59.126Z,13.54
2018-04-15T07:51:52.052Z,13.64
2018-04-15T07:52:52.053Z,13.64
2018-04-15T07:54:44.957Z,13.64
2018-04-15T07:55:44.982Z,13.70
2018-04-15T07:57:38.060Z,13.59
2018-04-15T07:58:38.055Z,13.63
2018-04-15T08:00:30.961Z,13.55
2018-04-15T08:01:30.980Z,13.70
2018-04-15T08:03:23.903Z,13.64
2018-04-15T08:04:23.906Z,13.66
2018-04-15T08:06:16.813Z,13.73
2018-04-15T08:07:16.835Z,13.81
2018-04-15T08:09:09.759Z,13.85
2018-04-15T08:10:09.763Z,13.89
2018-04-15T08:12:02.685Z,13.89
2018-04-15T08:13:02.733Z,13.92
2018-04-15T08:14:55.752Z,13.81
2018-04-15T08:15:55.776Z,13.75
2018-04-15T08:17:48.854Z,13.84
2018-04-15T08:18:48.856Z,13.91
2018-04-15T08:20:41.767Z,13.95
2018-04-15T08:21:41.886Z,13.96
2018-04-15T08:23:34.904Z,14.02
2018-04-15T08:24:34.864Z,14.15
2018-04-15T08:26:27.978Z,14.21
2018-04-15T08:27:28.002Z,14.35
2018-04-15T08:29:21.441Z,14.35
2018-04-15T08:30:21.452Z,14.43
2018-04-15T08:32:14.575Z,14.43
2018-04-15T08:33:14.526Z,14.28
2018-04-15T08:35:07.659Z,14.45
2018-04-15T08:36:07.687Z,14.52
2018-04-15T08:38:00.860Z,14.72
2018-04-15T08:39:00.843Z,14.78
2018-04-15T08:40:53.991Z,14.91
2018-04-15T08:41:54.067Z,14.98
2018-04-15T08:43:47.432Z,14.95
2018-04-15T08:44:47.439Z,14.94
2018-04-15T08:46:40.343Z,15.09
2018-04-15T08:47:40.368Z,15.20
2018-04-15T08:49:33.472Z,15.27
2018-04-15T08:50:33.476Z,15.29
2018-04-15T08:52:26.404Z,15.29
2018-04-15T08:53:26.410Z,15.16
2018-04-15T08:55:19.319Z,14.98
2018-04-15T08:56:19.344Z,14.98
2018-04-15T08:58:12.335Z,15.03
2018-04-15T08:59:12.270Z,15.10
2018-04-15T09:01:05.179Z,15.29
2018-04-15T09:02:05.201Z,15.39
2018-04-15T09:03:58.132Z,15.57
2018-04-15T09:04:58.144Z,15.60
2018-04-15T09:06:51.045Z,15.78
2018-04-15T09:07:51.070Z,15.87
2018-04-15T09:09:45.053Z,16.01
2018-04-15T09:10:45.001Z,16.07
2018-04-15T09:12:38.016Z,16.09
2018-04-15T09:13:37.936Z,16.09
2018-04-15T09:15:31.061Z,16.15
2018-04-15T09:16:31.089Z,16.21
2018-04-15T09:18:24.011Z,16.14
2018-04-15T09:19:24.018Z,16.21
2018-04-15T09:21:16.929Z,16.48
2018-04-15T09:22:16.955Z,16.42
2018-04-15T09:24:10.955Z,16.61
2018-04-15T09:25:10.897Z,16.49
2018-04-15T09:27:03.873Z,16.57
2018-04-15T09:28:03.854Z,16.82
2018-04-15T09:29:56.790Z,17.11
2018-04-15T09:30:56.795Z,17.28
2018-04-15T09:32:49.723Z,17.59
2018-04-15T09:33:49.736Z,17.66
2018-04-15T09:35:42.648Z,17.72
2018-04-15T09:36:42.676Z,17.84
2018-04-15T09:38:35.836Z,17.79
2018-04-15T09:39:35.847Z,17.75
2018-04-15T09:41:28.759Z,17.56
2018-04-15T09:42:28.787Z,17.74
2018-04-15T09:44:21.891Z,17.95
2018-04-15T09:45:21.876Z,18.20
2018-04-15T09:47:14.804Z,18.50
2018-04-15T09:48:14.813Z,18.54
2018-04-15T09:50:07.743Z,18.81
2018-04-15T09:51:07.760Z,18.92
2018-04-15T09:53:00.685Z,19.02
2018-04-15T09:54:00.693Z,19.00
2018-04-15T09:55:53.605Z,18.84
2018-04-15T09:56:53.638Z,18.69
2018-04-15T09:58:46.564Z,18.85
2018-04-15T09:59:46.574Z,18.92
2018-04-15T10:01:39.489Z,19.29
2018-04-15T10:02:39.520Z,19.31
2018-04-15T10:04:32.632Z,19.48
2018-04-15T10:05:32.643Z,19.47
2018-04-15T10:07:25.579Z,19.43
2018-04-15T10:08:25.608Z,19.31
2018-04-15T10:10:21.458Z,19.19
2018-04-15T10:11:18.550Z,18.98
2018-04-15T10:13:11.483Z,18.88
2018-04-15T10:14:11.497Z,18.80
2018-04-15T10:16:04.406Z,18.91
2018-04-15T10:17:04.432Z,19.07
2018-04-15T10:18:58.620Z,19.19
2018-04-15T10:19:58.657Z,19.37
2018-04-15T10:21:51.537Z,19.54
2018-04-15T10:22:51.565Z,19.58
2018-04-15T10:24:44.495Z,19.41
2018-04-15T10:25:44.502Z,19.37
2018-04-15T10:27:37.414Z,19.36
2018-04-15T10:28:37.443Z,19.43
2018-04-15T10:30:30.871Z,19.47
2018-04-15T10:31:30.877Z,19.50
2018-04-15T10:33:23.812Z,19.55
2018-04-15T10:34:23.818Z,19.51
2018-04-15T10:36:17.878Z,19.62
2018-04-15T10:37:17.921Z,19.69
2018-04-15T10:39:10.837Z,19.62
2018-04-15T10:40:10.844Z,19.47
2018-04-15T10:42:04.345Z,19.58
2018-04-15T10:43:03.813Z,19.69
2018-04-15T10:44:56.723Z,19.88
2018-04-15T10:45:56.751Z,20.01
2018-04-15T10:47:49.688Z,19.92
2018-04-15T10:48:49.692Z,19.80
2018-04-15T10:50:42.674Z,19.92
2018-04-15T10:51:42.642Z,19.99
2018-04-15T10:53:35.903Z,19.98
2018-04-15T10:54:35.752Z,20.01
2018-04-15T10:56:28.886Z,20.35
2018-04-15T10:57:28.882Z,20.51
2018-04-15T10:59:22.033Z,20.54
2018-04-15T11:00:22.041Z,20.50
2018-04-15T11:02:15.174Z,20.59
2018-04-15T11:03:15.201Z,20.58
2018-04-15T11:05:08.351Z,20.73
2018-04-15T11:06:08.370Z,20.85
2018-04-15T11:08:01.281Z,21.09
2018-04-15T11:09:01.307Z,21.22
2018-04-15T11:10:54.462Z,21.22
2018-04-15T11:11:54.468Z,21.28
2018-04-15T11:13:48.554Z,21.24
2018-04-15T11:14:48.564Z,21.40
2018-04-15T11:16:41.681Z,21.58
2018-04-15T11:17:41.709Z,21.71
2018-04-15T11:19:35.142Z,21.27
2018-04-15T11:20:35.200Z,21.27
2018-04-15T11:22:28.065Z,20.98
2018-04-15T11:23:28.096Z,20.76
2018-04-15T11:25:21.026Z,20.43
2018-04-15T11:26:21.034Z,20.48
2018-04-15T11:28:13.956Z,20.55
2018-04-15T11:29:13.980Z,20.58
2018-04-15T11:31:07.480Z,20.58
2018-04-15T11:32:07.426Z,20.55
2018-04-15T11:34:00.549Z,20.61
2018-04-15T11:35:00.559Z,20.61
2018-04-15T11:36:53.493Z,20.61
2018-04-15T11:38:00.629Z,20.55
2018-04-15T11:39:46.437Z,20.61
2018-04-15T11:40:46.446Z,20.64
2018-04-15T11:42:39.362Z,20.79
2018-04-15T11:43:39.394Z,20.70
2018-04-15T11:45:32.327Z,20.70
2018-04-15T11:46:32.337Z,20.73
2018-04-15T11:48:25.247Z,20.73
2018-04-15T11:49:25.282Z,20.79
2018-04-15T11:51:18.233Z,20.84
2018-04-15T11:52:18.222Z,20.76
2018-04-15T11:54:11.137Z,20.61
2018-04-15T11:55:11.169Z,20.58
2018-04-15T11:57:04.288Z,20.42
2018-04-15T11:58:04.296Z,20.43
2018-04-15T11:59:57.231Z,20.58
2018-04-15T12:00:57.238Z,20.61
2018-04-15T12:02:50.383Z,20.89
2018-04-15T12:03:50.408Z,20.97
2018-04-15T12:05:43.350Z,21.24
2018-04-15T12:06:43.361Z,21.21
2018-04-15T12:08:36.274Z,21.43
2018-04-15T12:09:36.312Z,21.44
2018-04-15T12:11:29.284Z,21.54
2018-04-15T12:12:29.271Z,21.56
2018-04-15T12:14:22.185Z,21.64
2018-04-15T12:15:22.211Z,21.72
2018-04-15T12:17:15.217Z,21.91
2018-04-15T12:18:15.164Z,21.71
2018-04-15T12:20:08.104Z,21.40
2018-04-15T12:21:08.105Z,21.28
2018-04-15T12:23:01.021Z,21.27
2018-04-15T12:24:01.058Z,21.24
2018-04-15T12:25:53.990Z,21.24
2018-04-15T12:26:54.001Z,21.27
2018-04-15T12:28:46.915Z,21.32
2018-04-15T12:29:46.951Z,21.16
2018-04-15T12:31:39.893Z,20.99
2018-04-15T12:32:39.902Z,21.03
2018-04-15T12:34:32.818Z,21.09
2018-04-15T12:35:32.846Z,21.10
2018-04-15T12:37:25.792Z,21.17
2018-04-15T12:38:25.799Z,21.21
2018-04-15T12:40:18.717Z,21.31
2018-04-15T12:41:18.751Z,21.32
2018-04-15T12:43:11.727Z,21.46
2018-04-15T12:44:11.730Z,21.53
2018-04-15T12:46:04.682Z,21.50
2018-04-15T12:47:04.728Z,21.44
2018-04-15T12:48:57.699Z,21.49
2018-04-15T12:49:57.651Z,21.56
2018-04-15T12:51:50.598Z,21.54
2018-04-15T12:52:50.586Z,21.71
2018-04-15T12:54:44.017Z,21.77
2018-04-15T12:55:44.046Z,21.80
2018-04-15T12:57:38.511Z,21.86
2018-04-15T12:58:38.507Z,21.96
2018-04-15T13:00:36.493Z,22.15
2018-04-15T13:01:36.465Z,22.17
2018-04-15T13:03:30.900Z,22.10
2018-04-15T13:04:30.913Z,22.09
2018-04-15T13:06:24.356Z,22.27
2018-04-15T13:07:24.368Z,22.36
2018-04-15T13:09:17.784Z,22.45
2018-04-15T13:10:17.816Z,22.47
2018-04-15T13:12:11.253Z,22.72
2018-04-15T13:13:11.260Z,22.67
2018-04-15T13:15:04.677Z,22.49
2018-04-15T13:16:04.707Z,22.43
2018-04-15T13:17:58.184Z,22.18
2018-04-15T13:18:58.194Z,22.05
2018-04-15T13:20:51.624Z,21.98
2018-04-15T13:21:51.640Z,21.98
2018-04-15T13:23:45.085Z,22.12
2018-04-15T13:24:45.089Z,22.27
2018-04-15T13:26:38.574Z,22.28
2018-04-15T13:27:38.533Z,22.42
2018-04-15T13:29:32.978Z,22.45
2018-04-15T13:30:32.990Z,22.46
2018-04-15T13:32:27.450Z,22.57
2018-04-15T13:33:27.439Z,22.70
2018-04-15T13:35:21.857Z,22.85
2018-04-15T13:36:21.901Z,22.98
2018-04-15T13:38:14.832Z,23.22
2018-04-15T13:39:14.846Z,23.25
2018-04-15T13:41:07.764Z,23.05
2018-04-15T13:42:07.792Z,23.00
2018-04-15T13:44:00.734Z,23.07
2018-04-15T13:45:00.748Z,23.15
2018-04-15T13:46:54.721Z,22.91
2018-04-15T13:47:54.700Z,22.88
2018-04-15T13:49:48.189Z,22.72
2018-04-15T13:50:48.149Z,22.62
2018-04-15T13:52:41.084Z,22.05
2018-04-15T13:53:41.096Z,21.72
2018-04-15T13:55:34.041Z,21.54
2018-04-15T13:56:34.050Z,21.32
2018-04-15T13:58:26.967Z,21.38
2018-04-15T13:59:26.997Z,21.37
2018-04-15T14:01:19.942Z,21.37
2018-04-15T14:02:19.957Z,21.54
2018-04-15T14:04:13.404Z,21.59
2018-04-15T14:05:13.437Z,21.59
2018-04-15T14:07:06.374Z,21.67
2018-04-15T14:08:06.380Z,21.68
2018-04-15T14:09:59.299Z,21.75
2018-04-15T14:10:59.326Z,21.79
2018-04-15T14:12:52.266Z,21.88
2018-04-15T14:13:52.282Z,21.98
2018-04-15T14:15:46.380Z,21.84
2018-04-15T14:16:46.421Z,21.83
2018-04-15T14:18:39.839Z,21.99
2018-04-15T14:19:39.307Z,22.05
2018-04-15T14:21:32.491Z,21.96
2018-04-15T14:22:32.456Z,21.98
2018-04-15T14:24:25.418Z,21.96
2018-04-15T14:25:25.425Z,22.02
2018-04-15T14:27:18.350Z,22.14
2018-04-15T14:28:18.363Z,21.99
2018-04-15T14:30:11.297Z,21.80
2018-04-15T14:31:11.306Z,21.64
2018-04-15T14:33:04.245Z,21.37
2018-04-15T14:34:04.254Z,21.35
2018-04-15T14:35:57.311Z,21.42
2018-04-15T14:36:57.218Z,21.44
2018-04-15T14:38:50.140Z,21.40
2018-04-15T14:39:50.169Z,21.44
2018-04-15T14:41:43.128Z,21.53
2018-04-15T14:42:43.134Z,21.47
2018-04-15T14:44:36.612Z,21.50
2018-04-15T14:45:36.596Z,21.40
2018-04-15T14:47:29.638Z,21.49
2018-04-15T14:48:29.646Z,21.43
2018-04-15T14:50:22.576Z,21.27
2018-04-15T14:51:22.606Z,21.32
2018-04-15T14:53:15.650Z,21.22
2018-04-15T14:54:15.658Z,21.16
2018-04-15T14:56:09.115Z,21.04
2018-04-15T14:57:09.124Z,20.99
2018-04-15T14:59:02.071Z,20.98
2018-04-15T15:00:02.183Z,21.01
2018-04-15T15:01:55.590Z,21.17
2018-04-15T15:02:55.599Z,21.28
2018-04-15T15:04:49.089Z,21.50
2018-04-15T15:05:49.115Z,21.54
2018-04-15T15:07:42.847Z,21.80
2018-04-15T15:08:42.684Z,21.74
2018-04-15T15:10:35.617Z,21.82
2018-04-15T15:11:35.639Z,21.86
2018-04-15T15:13:30.188Z,21.77
2018-04-15T15:14:30.166Z,21.67
2018-04-15T15:16:23.172Z,21.68
2018-04-15T15:17:23.183Z,21.68
2018-04-15T15:19:16.222Z,21.40
2018-04-15T15:20:16.238Z,21.47
2018-04-15T15:22:09.184Z,21.64
2018-04-15T15:23:09.191Z,21.71
2018-04-15T15:25:02.245Z,21.79
2018-04-15T15:26:02.250Z,21.71
2018-04-15T15:27:55.431Z,21.88
2018-04-15T15:28:55.320Z,21.91
2018-04-15T15:30:48.337Z,22.02
2018-04-15T15:31:48.364Z,21.96
2018-04-15T15:33:41.408Z,22.05
2018-04-15T15:34:41.504Z,22.05
2018-04-15T15:36:34.550Z,21.99
2018-04-15T15:37:34.562Z,21.96
2018-04-15T15:39:27.501Z,22.07
2018-04-15T15:40:27.530Z,22.00
2018-04-15T15:42:20.476Z,21.92
2018-04-15T15:43:20.489Z,22.02
2018-04-15T15:45:13.413Z,21.92
2018-04-15T15:46:13.446Z,22.02
2018-04-15T15:48:06.895Z,22.02
2018-04-15T15:49:06.904Z,22.06
2018-04-15T15:51:00.343Z,22.07
2018-04-15T15:52:00.371Z,22.09
2018-04-15T15:53:53.417Z,22.24
2018-04-15T15:54:53.426Z,22.07
2018-04-15T15:56:46.886Z,21.94
2018-04-15T15:57:46.904Z,21.94
2018-04-15T15:59:42.916Z,21.75
2018-04-15T16:00:42.943Z,21.75
2018-04-15T16:02:35.963Z,21.68
2018-04-15T16:03:35.974Z,21.69
2018-04-15T16:05:28.934Z,21.68
2018-04-15T16:06:28.972Z,21.69
2018-04-15T16:08:21.972Z,21.56
2018-04-15T16:09:22.003Z,21.58
2018-04-15T16:11:15.422Z,21.53
2018-04-15T16:12:15.526Z,21.56
2018-04-15T16:14:08.909Z,21.59
2018-04-15T16:15:08.938Z,21.56
2018-04-15T16:17:05.303Z,21.71
2018-04-15T16:18:05.254Z,21.77
2018-04-15T16:19:58.792Z,21.99
2018-04-15T16:20:58.829Z,21.83
2018-04-15T16:22:53.328Z,21.58
2018-04-15T16:23:53.337Z,21.54
2018-04-15T16:25:46.758Z,21.59
2018-04-15T16:26:46.879Z,21.68
2018-04-15T16:28:39.822Z,21.69
2018-04-15T16:29:39.828Z,21.65
2018-04-15T16:31:33.425Z,21.77
2018-04-15T16:32:33.316Z,21.75
2018-04-15T16:34:26.835Z,21.82
2018-04-15T16:35:26.863Z,21.80
2018-04-15T16:37:20.367Z,21.72
2018-04-15T16:38:20.419Z,21.68
2018-04-15T16:40:13.810Z,21.56
2018-04-15T16:41:13.873Z,21.42
2018-04-15T16:43:07.373Z,21.34
2018-04-15T16:44:07.381Z,21.17
2018-04-15T16:46:00.901Z,21.10
2018-04-15T16:47:00.930Z,21.06
2018-04-15T16:48:53.993Z,20.98
2018-04-15T16:49:53.985Z,21.09
2018-04-15T16:51:46.937Z,21.01
2018-04-15T16:52:46.940Z,20.98
2018-04-15T16:54:40.377Z,20.95
2018-04-15T16:55:40.406Z,20.87
2018-04-15T16:57:33.862Z,21.03
2018-04-15T16:58:33.871Z,20.98
2018-04-15T17:00:27.365Z,20.94
2018-04-15T17:01:27.335Z,20.91
2018-04-15T17:03:20.289Z,20.97
2018-04-15T17:04:20.320Z,20.97
2018-04-15T17:06:14.779Z,20.94
2018-04-15T17:07:14.781Z,20.88
2018-04-15T17:09:07.858Z,20.72
2018-04-15T17:10:07.906Z,20.73
2018-04-15T17:12:01.298Z,20.69
2018-04-15T17:13:01.308Z,20.57
2018-04-15T17:14:54.353Z,20.61
2018-04-15T17:15:54.358Z,20.55
2018-04-15T17:17:47.302Z,20.50
2018-04-15T17:18:47.325Z,20.51
2018-04-15T17:20:40.801Z,20.54
2018-04-15T17:21:40.788Z,20.55
2018-04-15T17:23:34.306Z,20.47
2018-04-15T17:24:34.267Z,20.50
2018-04-15T17:26:27.281Z,20.43
2018-04-15T17:27:27.350Z,20.51
2018-04-15T17:29:20.775Z,20.47
2018-04-15T17:30:20.764Z,20.51
2018-04-15T17:32:13.713Z,20.50
2018-04-15T17:33:13.717Z,20.39
2018-04-15T17:35:06.661Z,20.47
2018-04-15T17:36:06.720Z,20.43
2018-04-15T17:37:59.671Z,20.32
2018-04-15T17:38:59.633Z,20.38
2018-04-15T17:40:52.579Z,20.35
2018-04-15T17:41:52.585Z,20.31
2018-04-15T17:43:45.607Z,20.35
2018-04-15T17:44:45.583Z,20.29
2018-04-15T17:46:38.492Z,20.28
2018-04-15T17:47:38.519Z,20.31
2018-04-15T17:49:31.955Z,20.32
2018-04-15T17:50:31.957Z,20.21
2018-04-15T17:52:25.004Z,20.18
2018-04-15T17:53:25.048Z,20.20
2018-04-15T17:55:18.088Z,20.26
2018-04-15T17:56:18.142Z,20.18
2018-04-15T17:58:11.625Z,20.14
2018-04-15T17:59:11.646Z,20.11
2018-04-15T18:01:04.584Z,19.99
2018-04-15T18:02:04.610Z,20.01
2018-04-15T18:03:58.456Z,19.95
2018-04-15T18:04:58.463Z,19.86
2018-04-15T18:06:51.390Z,19.77
2018-04-15T18:07:51.417Z,19.69
2018-04-15T18:09:44.370Z,19.68
2018-04-15T18:10:44.373Z,19.61
2018-04-15T18:12:37.927Z,19.55
2018-04-15T18:13:37.888Z,19.55
2018-04-15T18:15:31.312Z,19.51
2018-04-15T18:16:31.303Z,19.50
2018-04-15T18:18:24.284Z,19.31
2018-04-15T18:19:24.310Z,19.28
2018-04-15T18:21:17.193Z,19.26
2018-04-15T18:22:17.213Z,19.23
2018-04-15T18:24:10.184Z,19.23
2018-04-15T18:25:10.176Z,19.22
2018-04-15T18:27:03.653Z,19.18
2018-04-15T18:28:03.249Z,19.13
2018-04-15T18:29:56.212Z,19.10
2018-04-15T18:30:56.216Z,19.10
2018-04-15T18:32:49.160Z,19.06
2018-04-15T18:33:49.133Z,19.07